Kinston Regional Jetport At Stallings Field
KISO : now visible

Airfield :











YOU CAN JOIN US ON...

 
LOGIN :

Register | Disclaimer

   EN    FR    IT 

 









Legend :    VFR   Marginal VFR   IFR   Intensive IFR   Very Intensive IFR
Visi :
Ceiling :
>= 8 km
>= 3000ft
5 to 8 km
1000 to 3000 ft
1500m to 5 km
500 to 1000 ft
800 to 1500m
200 to 500 ft
< 800m
< 200 ft
Symbols :   Thunderstorms  Fog  Heavy snow  Heavy precipitations  Wind > 20 kt






- Airport Elevation : 93 ft


KISO - Kinston Regional Jetport At Stallings Field

CURRENT METAR :
  • 170255Z AUTO 00000KT 3SM +RA SCT016 OVC023 09/08 A3015 RMK AO2 P0002 60002 T00870076

EXPIRED METARs :
  • 170156Z 17003KT 10SM OVC031 10/07 A3014
  • 170056Z 00000KT 10SM OVC035 10/05 A3013

TAF KISO
Valid from the 17 at 00:00 until the 18 at 00:00 UTC


162332Z 1700/1724 00000KT P6SM VCSH BKN030
FM170200 00000KT 4SM -RA SCT007 OVC015
FM170600 00000KT 4SM -RA OVC007
FM170900 VRB02KT 3SM BR OVC005
FM171400 03005KT P6SM BKN025
FM171600 06006KT P6SM SCT040 AMD LTD TO CLD VIS AND WIND



MET'MAP, your aeronautical weather chart ! - Copyright ORBIFLY December 2007 - Disclaimer

ORBIFLY MET'MAP TEAM :

Programming & Development : Alexandra Zaïnal
Concept & original design : Baudouin d'Aumeries
Assistance for programming : Marc-Olivier Méhu
Technical & hardware support : Manuel Goepfert

Contact : metmap@orbifly.com




SOURCES & CREDITS :

   NOAA       Earth
Advisory